sensor_id;sensor_type;location;lat;lon;timestamp;P1;durP1;ratioP1;P2;durP2;ratioP2
51913;SDS011;37940;53.002;6.930;2023-02-18T00:00:25;13.05;;;3.00;;
51913;SDS011;37940;53.002;6.930;2023-02-18T00:02:52;14.02;;;2.90;;
51913;SDS011;37940;53.002;6.930;2023-02-18T00:05:19;9.75;;;2.83;;
51913;SDS011;37940;53.002;6.930;2023-02-18T00:07:45;15.55;;;3.05;;
51913;SDS011;37940;53.002;6.930;2023-02-18T00:10:13;17.63;;;3.40;;
51913;SDS011;37940;53.002;6.930;2023-02-18T00:12:39;14.82;;;3.33;;
51913;SDS011;37940;53.002;6.930;2023-02-18T00:15:05;16.88;;;2.90;;
51913;SDS011;37940;53.002;6.930;2023-02-18T00:17:32;18.40;;;3.55;;
51913;SDS011;37940;53.002;6.930;2023-02-18T00:19:58;14.82;;;3.03;;
51913;SDS011;37940;53.002;6.930;2023-02-18T00:22:23;16.85;;;3.17;;
51913;SDS011;37940;53.002;6.930;2023-02-18T00:24:49;14.68;;;3.55;;
51913;SDS011;37940;53.002;6.930;2023-02-18T00:27:15;16.17;;;2.85;;
51913;SDS011;37940;53.002;6.930;2023-02-18T00:29:41;21.02;;;3.50;;
51913;SDS011;37940;53.002;6.930;2023-02-18T00:32:07;14.77;;;3.05;;
51913;SDS011;37940;53.002;6.930;2023-02-18T00:34:33;21.48;;;3.38;;
51913;SDS011;37940;53.002;6.930;2023-02-18T00:36:59;14.77;;;3.30;;
51913;SDS011;37940;53.002;6.930;2023-02-18T00:39:24;12.77;;;3.00;;
51913;SDS011;37940;53.002;6.930;2023-02-18T00:41:50;14.38;;;2.83;;
51913;SDS011;37940;53.002;6.930;2023-02-18T00:44:16;15.57;;;2.95;;
51913;SDS011;37940;53.002;6.930;2023-02-18T00:46:42;19.00;;;3.28;;
51913;SDS011;37940;53.002;6.930;2023-02-18T00:49:08;17.30;;;3.00;;
51913;SDS011;37940;53.002;6.930;2023-02-18T00:51:34;16.23;;;3.00;;
51913;SDS011;37940;53.002;6.930;2023-02-18T00:54:01;16.45;;;2.97;;
51913;SDS011;37940;53.002;6.930;2023-02-18T00:56:26;13.73;;;3.05;;
51913;SDS011;37940;53.002;6.930;2023-02-18T00:58:53;14.48;;;2.80;;
51913;SDS011;37940;53.002;6.930;2023-02-18T01:01:19;13.80;;;2.85;;
51913;SDS011;37940;53.002;6.930;2023-02-18T01:03:45;11.98;;;2.60;;
51913;SDS011;37940;53.002;6.930;2023-02-18T01:06:11;19.13;;;3.30;;
51913;SDS011;37940;53.002;6.930;2023-02-18T01:08:38;13.68;;;2.63;;
51913;SDS011;37940;53.002;6.930;2023-02-18T01:11:04;15.43;;;2.88;;
51913;SDS011;37940;53.002;6.930;2023-02-18T01:13:32;11.60;;;2.75;;
51913;SDS011;37940;53.002;6.930;2023-02-18T01:15:58;15.20;;;2.88;;
51913;SDS011;37940;53.002;6.930;2023-02-18T01:18:24;18.38;;;3.90;;
51913;SDS011;37940;53.002;6.930;2023-02-18T01:20:50;17.83;;;2.83;;
51913;SDS011;37940;53.002;6.930;2023-02-18T01:23:16;21.58;;;3.15;;
51913;SDS011;37940;53.002;6.930;2023-02-18T01:25:43;15.98;;;3.28;;
51913;SDS011;37940;53.002;6.930;2023-02-18T01:28:10;18.27;;;3.15;;
51913;SDS011;37940;53.002;6.930;2023-02-18T01:30:37;20.92;;;3.78;;
51913;SDS011;37940;53.002;6.930;2023-02-18T01:33:03;14.45;;;3.33;;
51913;SDS011;37940;53.002;6.930;2023-02-18T01:35:29;15.82;;;3.10;;
51913;SDS011;37940;53.002;6.930;2023-02-18T01:37:55;14.30;;;2.90;;
51913;SDS011;37940;53.002;6.930;2023-02-18T01:40:23;16.38;;;2.95;;
51913;SDS011;37940;53.002;6.930;2023-02-18T01:42:51;18.30;;;4.10;;
51913;SDS011;37940;53.002;6.930;2023-02-18T01:48:02;21.85;;;3.55;;
51913;SDS011;37940;53.002;6.930;2023-02-18T01:50:32;25.27;;;3.42;;
51913;SDS011;37940;53.002;6.930;2023-02-18T01:53:00;12.90;;;3.05;;
51913;SDS011;37940;53.002;6.930;2023-02-18T01:55:26;15.57;;;3.22;;
51913;SDS011;37940;53.002;6.930;2023-02-18T01:57:52;15.93;;;2.90;;
51913;SDS011;37940;53.002;6.930;2023-02-18T02:00:19;16.48;;;3.22;;
51913;SDS011;37940;53.002;6.930;2023-02-18T02:02:50;17.15;;;3.45;;
51913;SDS011;37940;53.002;6.930;2023-02-18T02:05:17;21.38;;;3.25;;
51913;SDS011;37940;53.002;6.930;2023-02-18T02:07:45;23.88;;;3.30;;
51913;SDS011;37940;53.002;6.930;2023-02-18T02:10:15;17.20;;;3.55;;
51913;SDS011;37940;53.002;6.930;2023-02-18T02:12:55;14.07;;;3.70;;
51913;SDS011;37940;53.002;6.930;2023-02-18T02:15:56;17.85;;;3.80;;
51913;SDS011;37940;53.002;6.930;2023-02-18T02:18:39;17.77;;;3.42;;
51913;SDS011;37940;53.002;6.930;2023-02-18T02:24:11;17.70;;;4.15;;
51913;SDS011;37940;53.002;6.930;2023-02-18T02:35:44;30.52;;;4.78;;
51913;SDS011;37940;53.002;6.930;2023-02-18T02:38:19;20.95;;;4.38;;
51913;SDS011;37940;53.002;6.930;2023-02-18T02:46:57;26.83;;;6.10;;
51913;SDS011;37940;53.002;6.930;2023-02-18T02:49:53;25.45;;;7.28;;
51913;SDS011;37940;53.002;6.930;2023-02-18T02:52:31;24.05;;;6.97;;
51913;SDS011;37940;53.002;6.930;2023-02-18T02:55:02;26.23;;;6.72;;
51913;SDS011;37940;53.002;6.930;2023-02-18T03:00:02;25.60;;;7.78;;
51913;SDS011;37940;53.002;6.930;2023-02-18T03:10:45;27.25;;;8.45;;
51913;SDS011;37940;53.002;6.930;2023-02-18T03:18:54;27.10;;;8.57;;
51913;SDS011;37940;53.002;6.930;2023-02-18T03:24:11;25.65;;;9.52;;
51913;SDS011;37940;53.002;6.930;2023-02-18T03:26:46;28.65;;;10.40;;
51913;SDS011;37940;53.002;6.930;2023-02-18T03:29:16;25.33;;;9.02;;
51913;SDS011;37940;53.002;6.930;2023-02-18T03:31:44;29.13;;;9.00;;
51913;SDS011;37940;53.002;6.930;2023-02-18T03:34:15;20.30;;;8.40;;
51913;SDS011;37940;53.002;6.930;2023-02-18T03:36:44;21.42;;;8.05;;
51913;SDS011;37940;53.002;6.930;2023-02-18T03:39:10;26.50;;;8.57;;
51913;SDS011;37940;53.002;6.930;2023-02-18T03:41:40;22.50;;;8.77;;
51913;SDS011;37940;53.002;6.930;2023-02-18T03:44:07;24.40;;;8.48;;
51913;SDS011;37940;53.002;6.930;2023-02-18T03:46:35;22.80;;;8.18;;
51913;SDS011;37940;53.002;6.930;2023-02-18T03:49:03;24.55;;;7.75;;
51913;SDS011;37940;53.002;6.930;2023-02-18T03:51:30;23.17;;;7.50;;
51913;SDS011;37940;53.002;6.930;2023-02-18T03:53:56;18.95;;;7.28;;
51913;SDS011;37940;53.002;6.930;2023-02-18T03:56:22;21.73;;;7.85;;
51913;SDS011;37940;53.002;6.930;2023-02-18T03:58:48;21.90;;;7.63;;
51913;SDS011;37940;53.002;6.930;2023-02-18T04:01:14;22.27;;;7.85;;
51913;SDS011;37940;53.002;6.930;2023-02-18T04:03:40;23.55;;;8.13;;
51913;SDS011;37940;53.002;6.930;2023-02-18T04:06:06;21.42;;;7.40;;
51913;SDS011;37940;53.002;6.930;2023-02-18T04:08:32;22.67;;;7.80;;
51913;SDS011;37940;53.002;6.930;2023-02-18T04:10:58;21.90;;;8.43;;
51913;SDS011;37940;53.002;6.930;2023-02-18T04:13:24;24.17;;;8.27;;
51913;SDS011;37940;53.002;6.930;2023-02-18T04:15:50;19.70;;;9.18;;
51913;SDS011;37940;53.002;6.930;2023-02-18T04:18:16;24.05;;;9.25;;
51913;SDS011;37940;53.002;6.930;2023-02-18T04:20:42;22.77;;;9.32;;
51913;SDS011;37940;53.002;6.930;2023-02-18T04:23:08;27.65;;;9.90;;
51913;SDS011;37940;53.002;6.930;2023-02-18T04:25:34;28.95;;;10.15;;
51913;SDS011;37940;53.002;6.930;2023-02-18T04:28:00;26.08;;;10.60;;
51913;SDS011;37940;53.002;6.930;2023-02-18T04:30:25;27.60;;;10.85;;
51913;SDS011;37940;53.002;6.930;2023-02-18T04:32:52;30.95;;;12.05;;
51913;SDS011;37940;53.002;6.930;2023-02-18T04:35:18;33.42;;;13.70;;
51913;SDS011;37940;53.002;6.930;2023-02-18T04:37:44;32.67;;;15.57;;
51913;SDS011;37940;53.002;6.930;2023-02-18T04:40:10;31.58;;;15.23;;
51913;SDS011;37940;53.002;6.930;2023-02-18T04:42:36;37.08;;;15.52;;
51913;SDS011;37940;53.002;6.930;2023-02-18T04:45:01;40.08;;;17.10;;
51913;SDS011;37940;53.002;6.930;2023-02-18T04:47:28;39.20;;;17.25;;
51913;SDS011;37940;53.002;6.930;2023-02-18T04:49:53;58.83;;;20.90;;
51913;SDS011;37940;53.002;6.930;2023-02-18T04:52:19;49.65;;;20.95;;
51913;SDS011;37940;53.002;6.930;2023-02-18T04:54:46;50.90;;;21.52;;
51913;SDS011;37940;53.002;6.930;2023-02-18T04:57:12;52.90;;;23.10;;
51913;SDS011;37940;53.002;6.930;2023-02-18T04:59:38;69.75;;;25.90;;
51913;SDS011;37940;53.002;6.930;2023-02-18T05:02:04;66.75;;;26.73;;
51913;SDS011;37940;53.002;6.930;2023-02-18T05:04:33;61.50;;;25.38;;
51913;SDS011;37940;53.002;6.930;2023-02-18T05:06:59;72.57;;;28.95;;
51913;SDS011;37940;53.002;6.930;2023-02-18T05:09:25;75.28;;;29.45;;
51913;SDS011;37940;53.002;6.930;2023-02-18T05:11:50;66.55;;;27.92;;
51913;SDS011;37940;53.002;6.930;2023-02-18T05:14:16;66.72;;;27.52;;
51913;SDS011;37940;53.002;6.930;2023-02-18T05:16:42;72.85;;;30.90;;
51913;SDS011;37940;53.002;6.930;2023-02-18T05:19:09;77.95;;;30.55;;
51913;SDS011;37940;53.002;6.930;2023-02-18T05:21:40;80.57;;;30.42;;
51913;SDS011;37940;53.002;6.930;2023-02-18T05:24:06;77.30;;;31.95;;
51913;SDS011;37940;53.002;6.930;2023-02-18T05:26:33;97.38;;;33.13;;
51913;SDS011;37940;53.002;6.930;2023-02-18T05:28:59;63.92;;;30.17;;
51913;SDS011;37940;53.002;6.930;2023-02-18T05:31:24;80.88;;;33.28;;
51913;SDS011;37940;53.002;6.930;2023-02-18T05:33:50;107.00;;;34.58;;
51913;SDS011;37940;53.002;6.930;2023-02-18T05:36:16;78.50;;;32.17;;
51913;SDS011;37940;53.002;6.930;2023-02-18T05:38:42;84.63;;;32.63;;
51913;SDS011;37940;53.002;6.930;2023-02-18T05:41:07;108.75;;;35.25;;
51913;SDS011;37940;53.002;6.930;2023-02-18T05:43:33;105.15;;;35.60;;
51913;SDS011;37940;53.002;6.930;2023-02-18T05:46:19;113.15;;;35.90;;
51913;SDS011;37940;53.002;6.930;2023-02-18T05:48:45;96.30;;;35.30;;
51913;SDS011;37940;53.002;6.930;2023-02-18T05:51:11;110.65;;;35.53;;
51913;SDS011;37940;53.002;6.930;2023-02-18T05:53:36;104.78;;;35.83;;
51913;SDS011;37940;53.002;6.930;2023-02-18T05:56:02;117.55;;;35.58;;
51913;SDS011;37940;53.002;6.930;2023-02-18T05:58:28;115.82;;;36.10;;
51913;SDS011;37940;53.002;6.930;2023-02-18T06:00:54;109.47;;;33.72;;
51913;SDS011;37940;53.002;6.930;2023-02-18T06:03:20;120.60;;;33.92;;
51913;SDS011;37940;53.002;6.930;2023-02-18T06:05:48;149.95;;;34.53;;
51913;SDS011;37940;53.002;6.930;2023-02-18T06:08:15;118.35;;;34.95;;
51913;SDS011;37940;53.002;6.930;2023-02-18T06:10:40;111.05;;;32.95;;
51913;SDS011;37940;53.002;6.930;2023-02-18T06:13:15;105.57;;;31.27;;
51913;SDS011;37940;53.002;6.930;2023-02-18T06:15:41;87.47;;;28.17;;
51913;SDS011;37940;53.002;6.930;2023-02-18T06:18:07;96.70;;;28.88;;
51913;SDS011;37940;53.002;6.930;2023-02-18T06:20:33;88.40;;;27.08;;
51913;SDS011;37940;53.002;6.930;2023-02-18T06:22:58;81.82;;;24.85;;
51913;SDS011;37940;53.002;6.930;2023-02-18T06:25:24;80.50;;;24.15;;
51913;SDS011;37940;53.002;6.930;2023-02-18T06:27:50;66.45;;;21.67;;
51913;SDS011;37940;53.002;6.930;2023-02-18T06:30:16;95.28;;;22.55;;
51913;SDS011;37940;53.002;6.930;2023-02-18T06:32:41;64.47;;;20.17;;
51913;SDS011;37940;53.002;6.930;2023-02-18T06:35:07;69.38;;;18.48;;
51913;SDS011;37940;53.002;6.930;2023-02-18T06:37:33;49.42;;;16.85;;
51913;SDS011;37940;53.002;6.930;2023-02-18T06:39:59;54.80;;;16.30;;
51913;SDS011;37940;53.002;6.930;2023-02-18T06:42:25;49.38;;;14.82;;
51913;SDS011;37940;53.002;6.930;2023-02-18T06:44:50;47.08;;;15.23;;
51913;SDS011;37940;53.002;6.930;2023-02-18T06:47:16;50.80;;;14.10;;
51913;SDS011;37940;53.002;6.930;2023-02-18T06:49:44;42.25;;;13.68;;
51913;SDS011;37940;53.002;6.930;2023-02-18T06:52:10;36.17;;;11.13;;
51913;SDS011;37940;53.002;6.930;2023-02-18T06:54:36;27.05;;;10.10;;
51913;SDS011;37940;53.002;6.930;2023-02-18T06:57:01;23.33;;;9.02;;
51913;SDS011;37940;53.002;6.930;2023-02-18T06:59:27;18.88;;;8.25;;
51913;SDS011;37940;53.002;6.930;2023-02-18T07:01:53;23.10;;;8.85;;
51913;SDS011;37940;53.002;6.930;2023-02-18T07:04:19;23.77;;;9.05;;
51913;SDS011;37940;53.002;6.930;2023-02-18T07:06:44;21.17;;;8.13;;
51913;SDS011;37940;53.002;6.930;2023-02-18T07:09:10;20.50;;;8.60;;
51913;SDS011;37940;53.002;6.930;2023-02-18T07:11:36;22.00;;;9.18;;
51913;SDS011;37940;53.002;6.930;2023-02-18T07:14:02;21.75;;;8.55;;
51913;SDS011;37940;53.002;6.930;2023-02-18T07:16:27;23.85;;;9.38;;
51913;SDS011;37940;53.002;6.930;2023-02-18T07:18:53;20.13;;;8.60;;
51913;SDS011;37940;53.002;6.930;2023-02-18T07:21:19;22.40;;;9.70;;
51913;SDS011;37940;53.002;6.930;2023-02-18T07:23:45;18.90;;;8.60;;
51913;SDS011;37940;53.002;6.930;2023-02-18T07:26:12;27.20;;;11.82;;
51913;SDS011;37940;53.002;6.930;2023-02-18T07:28:39;26.40;;;12.50;;
51913;SDS011;37940;53.002;6.930;2023-02-18T07:31:05;23.02;;;12.13;;
51913;SDS011;37940;53.002;6.930;2023-02-18T07:33:32;25.02;;;12.52;;
51913;SDS011;37940;53.002;6.930;2023-02-18T07:35:59;27.30;;;11.73;;
51913;SDS011;37940;53.002;6.930;2023-02-18T07:38:26;28.92;;;14.30;;
51913;SDS011;37940;53.002;6.930;2023-02-18T07:40:53;35.72;;;16.15;;
51913;SDS011;37940;53.002;6.930;2023-02-18T07:43:21;28.92;;;15.18;;
51913;SDS011;37940;53.002;6.930;2023-02-18T07:45:47;28.45;;;15.40;;
51913;SDS011;37940;53.002;6.930;2023-02-18T07:48:14;30.08;;;15.07;;
51913;SDS011;37940;53.002;6.930;2023-02-18T07:50:41;22.70;;;13.55;;
51913;SDS011;37940;53.002;6.930;2023-02-18T07:53:09;27.58;;;14.45;;
51913;SDS011;37940;53.002;6.930;2023-02-18T07:55:36;25.50;;;13.73;;
51913;SDS011;37940;53.002;6.930;2023-02-18T07:58:24;29.27;;;14.40;;
51913;SDS011;37940;53.002;6.930;2023-02-18T08:00:52;29.98;;;14.93;;
51913;SDS011;37940;53.002;6.930;2023-02-18T08:03:23;23.05;;;13.43;;
51913;SDS011;37940;53.002;6.930;2023-02-18T08:05:53;24.77;;;12.80;;
51913;SDS011;37940;53.002;6.930;2023-02-18T08:08:21;30.00;;;14.30;;
51913;SDS011;37940;53.002;6.930;2023-02-18T08:10:49;25.00;;;13.93;;
51913;SDS011;37940;53.002;6.930;2023-02-18T08:13:18;23.77;;;13.52;;
51913;SDS011;37940;53.002;6.930;2023-02-18T08:15:44;23.40;;;13.20;;
51913;SDS011;37940;53.002;6.930;2023-02-18T08:18:17;19.48;;;12.27;;
51913;SDS011;37940;53.002;6.930;2023-02-18T08:20:45;18.13;;;10.27;;
51913;SDS011;37940;53.002;6.930;2023-02-18T08:23:12;21.70;;;11.32;;
51913;SDS011;37940;53.002;6.930;2023-02-18T08:25:38;19.92;;;10.43;;
51913;SDS011;37940;53.002;6.930;2023-02-18T08:28:04;17.23;;;10.43;;
51913;SDS011;37940;53.002;6.930;2023-02-18T08:30:30;21.17;;;10.57;;
51913;SDS011;37940;53.002;6.930;2023-02-18T08:32:57;16.63;;;8.70;;
51913;SDS011;37940;53.002;6.930;2023-02-18T08:35:22;18.73;;;9.30;;
51913;SDS011;37940;53.002;6.930;2023-02-18T08:37:48;20.30;;;9.05;;
51913;SDS011;37940;53.002;6.930;2023-02-18T08:40:14;16.90;;;8.85;;
51913;SDS011;37940;53.002;6.930;2023-02-18T08:42:40;20.73;;;9.75;;
51913;SDS011;37940;53.002;6.930;2023-02-18T08:45:06;20.73;;;9.57;;
51913;SDS011;37940;53.002;6.930;2023-02-18T08:47:32;18.92;;;8.35;;
51913;SDS011;37940;53.002;6.930;2023-02-18T08:49:58;19.10;;;9.80;;
51913;SDS011;37940;53.002;6.930;2023-02-18T08:52:23;18.88;;;9.43;;
51913;SDS011;37940;53.002;6.930;2023-02-18T08:54:49;17.13;;;9.50;;
51913;SDS011;37940;53.002;6.930;2023-02-18T08:57:15;18.30;;;8.45;;
51913;SDS011;37940;53.002;6.930;2023-02-18T08:59:41;22.90;;;9.90;;
51913;SDS011;37940;53.002;6.930;2023-02-18T09:02:08;16.85;;;8.95;;
51913;SDS011;37940;53.002;6.930;2023-02-18T09:04:37;27.50;;;10.85;;
51913;SDS011;37940;53.002;6.930;2023-02-18T09:07:03;20.10;;;10.02;;
51913;SDS011;37940;53.002;6.930;2023-02-18T09:09:29;20.98;;;9.85;;
51913;SDS011;37940;53.002;6.930;2023-02-18T09:11:55;21.10;;;9.70;;
51913;SDS011;37940;53.002;6.930;2023-02-18T09:14:20;22.67;;;10.07;;
51913;SDS011;37940;53.002;6.930;2023-02-18T09:16:46;20.25;;;10.38;;
51913;SDS011;37940;53.002;6.930;2023-02-18T09:19:12;19.27;;;10.02;;
51913;SDS011;37940;53.002;6.930;2023-02-18T09:21:37;16.55;;;9.00;;
51913;SDS011;37940;53.002;6.930;2023-02-18T09:24:03;18.45;;;8.70;;
51913;SDS011;37940;53.002;6.930;2023-02-18T09:26:29;17.70;;;8.30;;
51913;SDS011;37940;53.002;6.930;2023-02-18T09:28:55;20.13;;;9.38;;
51913;SDS011;37940;53.002;6.930;2023-02-18T09:31:23;14.77;;;7.60;;
51913;SDS011;37940;53.002;6.930;2023-02-18T09:34:00;16.48;;;7.60;;
51913;SDS011;37940;53.002;6.930;2023-02-18T09:36:27;11.02;;;6.28;;
51913;SDS011;37940;53.002;6.930;2023-02-18T09:38:53;13.25;;;5.72;;
51913;SDS011;37940;53.002;6.930;2023-02-18T09:43:56;11.25;;;5.38;;
51913;SDS011;37940;53.002;6.930;2023-02-18T09:46:53;11.18;;;5.10;;
51913;SDS011;37940;53.002;6.930;2023-02-18T09:49:24;10.57;;;4.80;;
51913;SDS011;37940;53.002;6.930;2023-02-18T09:51:53;9.68;;;4.88;;
51913;SDS011;37940;53.002;6.930;2023-02-18T09:54:20;11.07;;;4.75;;
51913;SDS011;37940;53.002;6.930;2023-02-18T09:56:46;10.43;;;4.53;;
51913;SDS011;37940;53.002;6.930;2023-02-18T09:59:15;10.50;;;4.47;;
51913;SDS011;37940;53.002;6.930;2023-02-18T10:01:42;10.95;;;4.22;;
51913;SDS011;37940;53.002;6.930;2023-02-18T10:04:40;9.68;;;3.80;;
51913;SDS011;37940;53.002;6.930;2023-02-18T10:07:16;10.20;;;3.95;;
51913;SDS011;37940;53.002;6.930;2023-02-18T10:09:48;13.88;;;4.40;;
51913;SDS011;37940;53.002;6.930;2023-02-18T10:12:19;8.77;;;3.90;;
51913;SDS011;37940;53.002;6.930;2023-02-18T10:14:58;10.68;;;4.63;;
51913;SDS011;37940;53.002;6.930;2023-02-18T10:17:26;8.40;;;3.40;;
51913;SDS011;37940;53.002;6.930;2023-02-18T10:19:55;8.05;;;2.97;;
51913;SDS011;37940;53.002;6.930;2023-02-18T10:22:22;12.05;;;3.80;;
51913;SDS011;37940;53.002;6.930;2023-02-18T10:24:54;10.38;;;3.85;;
51913;SDS011;37940;53.002;6.930;2023-02-18T10:27:27;12.90;;;3.45;;
51913;SDS011;37940;53.002;6.930;2023-02-18T10:30:09;10.65;;;3.70;;
51913;SDS011;37940;53.002;6.930;2023-02-18T10:32:50;19.33;;;4.32;;
51913;SDS011;37940;53.002;6.930;2023-02-18T10:35:27;11.80;;;3.53;;
51913;SDS011;37940;53.002;6.930;2023-02-18T10:38:17;10.68;;;3.33;;
51913;SDS011;37940;53.002;6.930;2023-02-18T10:46:11;11.98;;;3.38;;
51913;SDS011;37940;53.002;6.930;2023-02-18T10:51:31;15.45;;;3.25;;
51913;SDS011;37940;53.002;6.930;2023-02-18T10:54:01;13.88;;;3.42;;
51913;SDS011;37940;53.002;6.930;2023-02-18T10:59:24;13.52;;;3.00;;
51913;SDS011;37940;53.002;6.930;2023-02-18T11:01:53;15.80;;;3.55;;
51913;SDS011;37940;53.002;6.930;2023-02-18T11:04:22;13.13;;;2.85;;
51913;SDS011;37940;53.002;6.930;2023-02-18T11:06:52;18.45;;;3.65;;
51913;SDS011;37940;53.002;6.930;2023-02-18T11:09:36;13.50;;;3.22;;
51913;SDS011;37940;53.002;6.930;2023-02-18T11:12:14;16.23;;;3.13;;
51913;SDS011;37940;53.002;6.930;2023-02-18T11:15:32;16.67;;;3.42;;
51913;SDS011;37940;53.002;6.930;2023-02-18T11:17:43;11.85;;;2.70;;
51913;SDS011;37940;53.002;6.930;2023-02-18T11:23:15;12.18;;;3.38;;
51913;SDS011;37940;53.002;6.930;2023-02-18T11:26:02;13.55;;;3.30;;
51913;SDS011;37940;53.002;6.930;2023-02-18T11:31:07;11.98;;;2.83;;
51913;SDS011;37940;53.002;6.930;2023-02-18T11:33:36;17.88;;;3.03;;
51913;SDS011;37940;53.002;6.930;2023-02-18T11:36:50;11.18;;;3.08;;
51913;SDS011;37940;53.002;6.930;2023-02-18T11:39:01;13.82;;;3.03;;
51913;SDS011;37940;53.002;6.930;2023-02-18T11:41:34;10.98;;;2.80;;
51913;SDS011;37940;53.002;6.930;2023-02-18T11:44:28;11.80;;;3.17;;
51913;SDS011;37940;53.002;6.930;2023-02-18T11:49:24;12.50;;;3.03;;
51913;SDS011;37940;53.002;6.930;2023-02-18T11:51:50;13.18;;;3.33;;
51913;SDS011;37940;53.002;6.930;2023-02-18T11:54:21;12.02;;;3.10;;
51913;SDS011;37940;53.002;6.930;2023-02-18T11:59:39;17.63;;;3.22;;
51913;SDS011;37940;53.002;6.930;2023-02-18T12:04:49;9.45;;;2.65;;
51913;SDS011;37940;53.002;6.930;2023-02-18T12:07:47;13.23;;;3.08;;
51913;SDS011;37940;53.002;6.930;2023-02-18T12:10:22;11.07;;;2.80;;
51913;SDS011;37940;53.002;6.930;2023-02-18T12:24:11;9.32;;;2.67;;
51913;SDS011;37940;53.002;6.930;2023-02-18T12:35:02;12.25;;;3.05;;
51913;SDS011;37940;53.002;6.930;2023-02-18T12:37:48;13.48;;;3.22;;
51913;SDS011;37940;53.002;6.930;2023-02-18T12:46:21;11.60;;;3.40;;
51913;SDS011;37940;53.002;6.930;2023-02-18T12:57:56;14.07;;;3.20;;
51913;SDS011;37940;53.002;6.930;2023-02-18T13:01:03;12.45;;;3.05;;
51913;SDS011;37940;53.002;6.930;2023-02-18T13:11:19;11.07;;;2.67;;
51913;SDS011;37940;53.002;6.930;2023-02-18T13:14:07;8.57;;;2.40;;
51913;SDS011;37940;53.002;6.930;2023-02-18T13:16:42;11.73;;;2.83;;
51913;SDS011;37940;53.002;6.930;2023-02-18T13:21:49;12.27;;;3.47;;
51913;SDS011;37940;53.002;6.930;2023-02-18T13:24:25;12.25;;;2.90;;
51913;SDS011;37940;53.002;6.930;2023-02-18T13:27:15;12.93;;;3.03;;
51913;SDS011;37940;53.002;6.930;2023-02-18T13:33:00;10.25;;;2.80;;
51913;SDS011;37940;53.002;6.930;2023-02-18T13:41:44;12.73;;;2.90;;
51913;SDS011;37940;53.002;6.930;2023-02-18T13:46:50;11.35;;;2.53;;
51913;SDS011;37940;53.002;6.930;2023-02-18T13:49:21;10.98;;;2.67;;
51913;SDS011;37940;53.002;6.930;2023-02-18T13:51:50;10.40;;;2.53;;
51913;SDS011;37940;53.002;6.930;2023-02-18T13:54:28;11.20;;;2.65;;
51913;SDS011;37940;53.002;6.930;2023-02-18T13:56:59;10.70;;;2.25;;
51913;SDS011;37940;53.002;6.930;2023-02-18T14:02:38;12.30;;;2.58;;
51913;SDS011;37940;53.002;6.930;2023-02-18T14:05:24;11.43;;;2.58;;
51913;SDS011;37940;53.002;6.930;2023-02-18T14:08:13;10.80;;;2.28;;
51913;SDS011;37940;53.002;6.930;2023-02-18T14:13:46;11.40;;;2.92;;
51913;SDS011;37940;53.002;6.930;2023-02-18T14:16:19;12.80;;;2.97;;
51913;SDS011;37940;53.002;6.930;2023-02-18T14:21:36;14.38;;;2.55;;
51913;SDS011;37940;53.002;6.930;2023-02-18T14:24:04;12.73;;;2.63;;
51913;SDS011;37940;53.002;6.930;2023-02-18T14:26:34;9.52;;;2.45;;
51913;SDS011;37940;53.002;6.930;2023-02-18T14:29:07;8.77;;;2.60;;
51913;SDS011;37940;53.002;6.930;2023-02-18T14:45:28;8.27;;;2.58;;
51913;SDS011;37940;53.002;6.930;2023-02-18T14:50:41;11.25;;;2.80;;
51913;SDS011;37940;53.002;6.930;2023-02-18T14:53:13;10.60;;;2.60;;
51913;SDS011;37940;53.002;6.930;2023-02-18T14:55:44;13.98;;;3.03;;
51913;SDS011;37940;53.002;6.930;2023-02-18T15:00:44;12.43;;;3.00;;
51913;SDS011;37940;53.002;6.930;2023-02-18T15:03:12;10.32;;;2.53;;
51913;SDS011;37940;53.002;6.930;2023-02-18T15:05:41;12.55;;;2.60;;
51913;SDS011;37940;53.002;6.930;2023-02-18T15:08:41;9.88;;;2.50;;
51913;SDS011;37940;53.002;6.930;2023-02-18T15:11:02;14.73;;;2.78;;
51913;SDS011;37940;53.002;6.930;2023-02-18T15:13:32;13.25;;;2.80;;
51913;SDS011;37940;53.002;6.930;2023-02-18T15:16:05;11.48;;;3.17;;
51913;SDS011;37940;53.002;6.930;2023-02-18T15:18:33;12.90;;;2.92;;
51913;SDS011;37940;53.002;6.930;2023-02-18T15:21:24;9.57;;;2.50;;
51913;SDS011;37940;53.002;6.930;2023-02-18T15:23:54;9.50;;;2.72;;
51913;SDS011;37940;53.002;6.930;2023-02-18T15:26:24;14.18;;;2.83;;
51913;SDS011;37940;53.002;6.930;2023-02-18T15:28:58;16.42;;;2.70;;
51913;SDS011;37940;53.002;6.930;2023-02-18T15:31:27;13.63;;;3.03;;
51913;SDS011;37940;53.002;6.930;2023-02-18T15:33:55;12.82;;;2.67;;
51913;SDS011;37940;53.002;6.930;2023-02-18T15:36:21;10.52;;;2.78;;
51913;SDS011;37940;53.002;6.930;2023-02-18T15:38:50;12.40;;;2.80;;
51913;SDS011;37940;53.002;6.930;2023-02-18T15:41:16;13.07;;;2.80;;
51913;SDS011;37940;53.002;6.930;2023-02-18T15:43:52;14.20;;;2.83;;
51913;SDS011;37940;53.002;6.930;2023-02-18T15:46:26;14.18;;;3.08;;
51913;SDS011;37940;53.002;6.930;2023-02-18T15:48:53;14.73;;;3.00;;
51913;SDS011;37940;53.002;6.930;2023-02-18T15:51:25;13.40;;;3.13;;
51913;SDS011;37940;53.002;6.930;2023-02-18T15:53:55;15.10;;;3.28;;
51913;SDS011;37940;53.002;6.930;2023-02-18T16:01:56;16.20;;;3.03;;
51913;SDS011;37940;53.002;6.930;2023-02-18T16:04:38;15.27;;;3.20;;
51913;SDS011;37940;53.002;6.930;2023-02-18T16:09:56;15.70;;;3.13;;
51913;SDS011;37940;53.002;6.930;2023-02-18T16:12:33;15.88;;;3.17;;
51913;SDS011;37940;53.002;6.930;2023-02-18T16:15:03;16.63;;;3.00;;
51913;SDS011;37940;53.002;6.930;2023-02-18T16:17:29;12.70;;;2.92;;
51913;SDS011;37940;53.002;6.930;2023-02-18T16:19:57;16.20;;;3.22;;
51913;SDS011;37940;53.002;6.930;2023-02-18T16:22:43;15.90;;;3.10;;
51913;SDS011;37940;53.002;6.930;2023-02-18T16:27:38;15.88;;;3.60;;
51913;SDS011;37940;53.002;6.930;2023-02-18T16:32:50;14.38;;;3.20;;
51913;SDS011;37940;53.002;6.930;2023-02-18T16:35:16;19.88;;;3.47;;
51913;SDS011;37940;53.002;6.930;2023-02-18T16:37:43;18.33;;;3.58;;
51913;SDS011;37940;53.002;6.930;2023-02-18T16:40:34;14.90;;;3.05;;
51913;SDS011;37940;53.002;6.930;2023-02-18T16:42:59;17.42;;;3.10;;
51913;SDS011;37940;53.002;6.930;2023-02-18T16:45:45;20.75;;;3.72;;
51913;SDS011;37940;53.002;6.930;2023-02-18T16:50:58;15.35;;;3.10;;
51913;SDS011;37940;53.002;6.930;2023-02-18T16:53:26;12.93;;;3.08;;
51913;SDS011;37940;53.002;6.930;2023-02-18T16:55:52;19.23;;;3.28;;
51913;SDS011;37940;53.002;6.930;2023-02-18T16:58:18;19.52;;;3.35;;
51913;SDS011;37940;53.002;6.930;2023-02-18T17:00:44;18.40;;;3.10;;
51913;SDS011;37940;53.002;6.930;2023-02-18T17:03:11;15.57;;;3.03;;
51913;SDS011;37940;53.002;6.930;2023-02-18T17:05:37;17.08;;;3.50;;
51913;SDS011;37940;53.002;6.930;2023-02-18T17:10:40;17.98;;;3.88;;
51913;SDS011;37940;53.002;6.930;2023-02-18T17:13:09;17.08;;;3.22;;
51913;SDS011;37940;53.002;6.930;2023-02-18T17:15:45;19.58;;;3.25;;
51913;SDS011;37940;53.002;6.930;2023-02-18T17:18:12;18.70;;;3.33;;
51913;SDS011;37940;53.002;6.930;2023-02-18T17:20:38;17.83;;;3.40;;
51913;SDS011;37940;53.002;6.930;2023-02-18T17:23:04;20.58;;;3.55;;
51913;SDS011;37940;53.002;6.930;2023-02-18T17:25:34;19.83;;;3.72;;
51913;SDS011;37940;53.002;6.930;2023-02-18T17:28:03;17.83;;;3.30;;
51913;SDS011;37940;53.002;6.930;2023-02-18T17:30:30;17.90;;;3.55;;
51913;SDS011;37940;53.002;6.930;2023-02-18T17:32:59;22.67;;;4.45;;
51913;SDS011;37940;53.002;6.930;2023-02-18T17:35:26;16.42;;;3.50;;